Time;durP1;ratioP1;P1;durP2;ratioP2;P2;SDS_P1;SDS_P2;PMS_P1;PMS_P2;Temp;Humidity;BMP_temperature;BMP_pressure;BME280_temperature;BME280_humidity;BME280_pressure;Samples;Min_cycle;Max_cycle;Signal;HPM_P1;HPM_P2
2022/12/02 00:00:42;;;;;;;32.15;18.15;;;;;;;;;;4987632;28;20039;-75
2022/12/02 00:03:12;;;;;;;32.53;19.27;;;;;;;;;;4974902;28;20410;-78
2022/12/02 00:05:38;;;;;;;38.10;19.50;;;;;;;;;;4980324;28;20049;-76
2022/12/02 00:08:20;;;;;;;41.38;20.55;;;;;;;;;;4977457;28;20494;-79
2022/12/02 00:10:50;;;;;;;37.40;18.27;;;;;;;;;;4972853;28;20398;-75
2022/12/02 00:13:26;;;;;;;35.43;19.37;;;;;;;;;;4985642;28;20119;-76
2022/12/02 00:15:56;;;;;;;30.70;18.48;;;;;;;;;;4986003;28;20074;-74
2022/12/02 00:18:22;;;;;;;36.58;20.23;;;;;;;;;;4977502;28;20062;-76
2022/12/02 00:20:47;;;;;;;34.72;19.10;;;;;;;;;;4958878;28;20038;-74
2022/12/02 00:23:13;;;;;;;42.17;20.75;;;;;;;;;;4972425;28;20086;-76
2022/12/02 00:25:41;;;;;;;30.33;18.15;;;;;;;;;;4964227;28;20038;-75
2022/12/02 00:28:07;;;;;;;37.08;19.83;;;;;;;;;;4975080;28;21996;-75
2022/12/02 00:30:32;;;;;;;39.92;19.95;;;;;;;;;;4979320;28;20045;-78
2022/12/02 00:32:58;;;;;;;36.85;19.38;;;;;;;;;;4971493;28;20039;-76
2022/12/02 00:35:23;;;;;;;41.72;21.80;;;;;;;;;;4979349;28;20052;-76
2022/12/02 00:37:50;;;;;;;36.38;19.83;;;;;;;;;;4977803;28;20054;-76
2022/12/02 00:40:16;;;;;;;34.28;18.50;;;;;;;;;;4977891;28;20035;-74
2022/12/02 00:42:41;;;;;;;42.92;18.90;;;;;;;;;;4979696;28;20030;-76
2022/12/02 00:47:54;;;;;;;41.25;19.95;;;;;;;;;;4978053;28;20468;-77
2022/12/02 00:50:20;;;;;;;38.28;19.65;;;;;;;;;;4985764;28;20066;-78
2022/12/02 00:52:45;;;;;;;36.03;17.90;;;;;;;;;;4980659;28;20041;-78
2022/12/02 00:55:11;;;;;;;40.60;19.10;;;;;;;;;;4979300;28;20062;-75
2022/12/02 00:57:36;;;;;;;39.70;19.73;;;;;;;;;;4980908;28;20030;-75
2022/12/02 01:00:04;;;;;;;36.83;19.67;;;;;;;;;;4981288;28;20068;-75
2022/12/02 01:02:30;;;;;;;42.28;22.38;;;;;;;;;;4981737;28;20062;-74
2022/12/02 01:04:56;;;;;;;42.42;21.10;;;;;;;;;;4981087;28;20030;-75
2022/12/02 01:07:21;;;;;;;39.45;20.73;;;;;;;;;;4988619;28;20034;-74
2022/12/02 01:09:47;;;;;;;35.38;18.98;;;;;;;;;;4981106;28;20031;-78
2022/12/02 01:12:13;;;;;;;37.10;20.38;;;;;;;;;;4986485;28;20034;-77
2022/12/02 01:14:38;;;;;;;37.53;20.40;;;;;;;;;;4979822;28;20042;-75
2022/12/02 01:17:04;;;;;;;42.28;20.27;;;;;;;;;;4989854;28;20118;-75
2022/12/02 01:19:30;;;;;;;39.83;20.05;;;;;;;;;;4977495;28;20034;-75
2022/12/02 01:21:56;;;;;;;36.28;19.35;;;;;;;;;;4980755;28;20113;-75
2022/12/02 01:24:23;;;;;;;35.95;19.92;;;;;;;;;;4977209;28;20041;-75
2022/12/02 01:26:48;;;;;;;34.33;18.02;;;;;;;;;;4983235;28;20039;-76
2022/12/02 01:29:14;;;;;;;37.35;19.13;;;;;;;;;;4982510;28;20065;-74
2022/12/02 01:31:39;;;;;;;41.25;20.88;;;;;;;;;;4979125;28;20683;-75
2022/12/02 01:34:05;;;;;;;36.15;19.08;;;;;;;;;;4979674;28;20042;-76
2022/12/02 01:36:31;;;;;;;43.90;19.85;;;;;;;;;;4971788;28;20035;-75
2022/12/02 01:38:56;;;;;;;45.22;21.45;;;;;;;;;;4979200;28;20054;-77
2022/12/02 01:41:22;;;;;;;43.17;21.00;;;;;;;;;;4978785;28;20030;-75
2022/12/02 01:43:48;;;;;;;47.35;22.50;;;;;;;;;;4978670;28;20398;-76
2022/12/02 01:46:14;;;;;;;37.55;19.50;;;;;;;;;;4972562;28;20038;-77
2022/12/02 01:48:39;;;;;;;45.17;22.42;;;;;;;;;;4977164;28;20042;-75
2022/12/02 01:51:06;;;;;;;42.05;21.02;;;;;;;;;;4953148;28;20110;-78
2022/12/02 01:53:32;;;;;;;37.97;20.20;;;;;;;;;;4981647;28;20046;-75
2022/12/02 01:55:59;;;;;;;44.88;20.77;;;;;;;;;;4978033;28;20038;-78
2022/12/02 01:58:27;;;;;;;38.92;19.27;;;;;;;;;;4975608;28;20026;-76
2022/12/02 02:00:54;;;;;;;37.78;19.75;;;;;;;;;;4981626;28;20039;-79
2022/12/02 02:03:20;;;;;;;39.92;19.15;;;;;;;;;;4973352;28;20046;-74
2022/12/02 02:05:46;;;;;;;38.70;18.45;;;;;;;;;;4977442;28;20046;-76
2022/12/02 02:08:12;;;;;;;33.33;18.90;;;;;;;;;;4961621;28;20034;-77
2022/12/02 02:10:41;;;;;;;38.72;18.75;;;;;;;;;;4974945;28;20042;-76
2022/12/02 02:13:09;;;;;;;40.45;18.55;;;;;;;;;;4977281;28;20043;-76
2022/12/02 02:15:38;;;;;;;36.33;18.38;;;;;;;;;;4981383;28;20038;-78
2022/12/02 02:18:05;;;;;;;35.33;18.33;;;;;;;;;;4982692;28;20038;-79
2022/12/02 02:20:31;;;;;;;34.45;17.88;;;;;;;;;;4976320;28;20078;-78
2022/12/02 02:23:04;;;;;;;35.70;18.00;;;;;;;;;;4974242;28;20367;-78
2022/12/02 02:25:32;;;;;;;30.25;17.48;;;;;;;;;;4981620;28;20034;-77
2022/12/02 02:28:00;;;;;;;34.28;17.60;;;;;;;;;;4963823;28;20034;-77
2022/12/02 02:30:30;;;;;;;34.92;17.23;;;;;;;;;;4977469;28;20041;-76
2022/12/02 02:32:56;;;;;;;30.70;16.63;;;;;;;;;;4975460;28;20446;-75
2022/12/02 02:35:23;;;;;;;36.35;18.23;;;;;;;;;;4975419;28;20395;-75
2022/12/02 02:37:51;;;;;;;37.17;19.20;;;;;;;;;;4978618;28;20040;-78
2022/12/02 02:40:18;;;;;;;34.38;19.30;;;;;;;;;;4975819;28;20038;-75
2022/12/02 02:42:50;;;;;;;39.50;20.50;;;;;;;;;;4983299;28;20042;-76
2022/12/02 02:45:17;;;;;;;40.30;21.85;;;;;;;;;;4983283;28;20039;-75
2022/12/02 02:47:42;;;;;;;35.15;19.17;;;;;;;;;;4985337;28;20042;-74
2022/12/02 02:50:09;;;;;;;35.40;18.40;;;;;;;;;;4987211;28;20037;-74
2022/12/02 02:52:35;;;;;;;38.17;20.45;;;;;;;;;;4981921;28;20051;-76
2022/12/02 02:55:00;;;;;;;38.42;19.10;;;;;;;;;;4978545;28;20045;-77
2022/12/02 02:57:27;;;;;;;42.97;20.63;;;;;;;;;;4987840;28;20072;-74
2022/12/02 02:59:54;;;;;;;36.25;18.38;;;;;;;;;;4985370;28;20050;-74
2022/12/02 03:02:23;;;;;;;38.30;20.70;;;;;;;;;;4983224;28;20508;-79
2022/12/02 03:04:49;;;;;;;37.88;19.23;;;;;;;;;;4978614;28;20035;-76
2022/12/02 03:07:15;;;;;;;27.65;16.13;;;;;;;;;;4982592;28;20137;-77
2022/12/02 03:09:41;;;;;;;35.50;18.10;;;;;;;;;;4980935;28;20030;-76
2022/12/02 03:12:07;;;;;;;36.83;19.08;;;;;;;;;;4987402;28;20437;-79
2022/12/02 03:14:33;;;;;;;33.80;18.38;;;;;;;;;;4975650;28;20049;-79
2022/12/02 03:17:01;;;;;;;37.33;19.60;;;;;;;;;;4982352;28;20034;-79
2022/12/02 03:19:30;;;;;;;37.17;19.27;;;;;;;;;;4986094;28;20061;-76
2022/12/02 03:21:56;;;;;;;38.25;19.60;;;;;;;;;;4984155;28;20125;-75
2022/12/02 03:24:21;;;;;;;35.05;18.70;;;;;;;;;;4979507;28;20030;-76
2022/12/02 03:26:47;;;;;;;35.53;18.05;;;;;;;;;;4979411;28;20494;-76
2022/12/02 03:29:14;;;;;;;34.13;18.73;;;;;;;;;;4985720;28;20069;-77
2022/12/02 03:31:40;;;;;;;35.13;18.67;;;;;;;;;;4983335;28;20472;-76
2022/12/02 03:34:06;;;;;;;40.63;21.38;;;;;;;;;;4979434;28;20078;-77
2022/12/02 03:36:32;;;;;;;42.65;20.60;;;;;;;;;;4966215;28;20077;-79
2022/12/02 03:38:58;;;;;;;39.10;20.52;;;;;;;;;;4982019;28;20062;-75
2022/12/02 03:41:25;;;;;;;51.90;22.83;;;;;;;;;;4987519;28;20049;-78
2022/12/02 03:43:51;;;;;;;38.97;20.05;;;;;;;;;;4980754;28;20069;-75
2022/12/02 03:46:17;;;;;;;39.28;18.30;;;;;;;;;;4986578;28;20061;-75
2022/12/02 03:48:43;;;;;;;39.38;21.02;;;;;;;;;;4986223;28;20408;-77
2022/12/02 03:51:12;;;;;;;44.03;21.35;;;;;;;;;;4985091;28;20030;-75
2022/12/02 03:53:39;;;;;;;38.08;19.90;;;;;;;;;;4977940;28;20487;-76
2022/12/02 03:56:06;;;;;;;40.70;21.67;;;;;;;;;;4976413;28;20177;-78
2022/12/02 03:58:34;;;;;;;38.70;19.23;;;;;;;;;;4985300;28;20429;-77
2022/12/02 04:01:00;;;;;;;40.55;21.40;;;;;;;;;;4975944;28;20066;-77
2022/12/02 04:03:25;;;;;;;42.10;21.67;;;;;;;;;;4974771;28;20046;-77
2022/12/02 04:05:51;;;;;;;42.47;21.95;;;;;;;;;;4981328;28;20105;-75
2022/12/02 04:08:16;;;;;;;45.28;22.60;;;;;;;;;;4984714;28;20564;-78
2022/12/02 04:10:42;;;;;;;43.38;21.70;;;;;;;;;;4985864;28;20031;-75
2022/12/02 04:13:07;;;;;;;44.58;20.13;;;;;;;;;;4975287;28;20113;-75
2022/12/02 04:15:33;;;;;;;37.92;19.30;;;;;;;;;;4989407;28;20046;-79
2022/12/02 04:17:59;;;;;;;41.38;21.92;;;;;;;;;;4984404;28;20034;-79
2022/12/02 04:20:24;;;;;;;44.08;21.52;;;;;;;;;;4980882;28;20026;-78
2022/12/02 04:22:50;;;;;;;44.22;20.83;;;;;;;;;;4983718;28;20084;-75
2022/12/02 04:25:15;;;;;;;46.05;23.50;;;;;;;;;;4981406;28;20085;-76
2022/12/02 04:27:41;;;;;;;39.97;21.65;;;;;;;;;;4984607;28;20076;-77
2022/12/02 04:30:07;;;;;;;46.63;20.95;;;;;;;;;;4984051;28;20100;-74
2022/12/02 04:32:33;;;;;;;48.97;22.63;;;;;;;;;;4972173;28;20034;-74
2022/12/02 04:34:58;;;;;;;40.53;20.90;;;;;;;;;;4981645;28;20117;-75
2022/12/02 04:37:24;;;;;;;42.97;20.17;;;;;;;;;;4984539;28;20030;-76
2022/12/02 04:39:50;;;;;;;38.97;19.90;;;;;;;;;;4985986;28;20498;-74
2022/12/02 04:42:15;;;;;;;34.80;20.10;;;;;;;;;;4978991;28;20045;-75
2022/12/02 04:44:41;;;;;;;43.40;21.02;;;;;;;;;;4983173;28;20110;-77
2022/12/02 04:47:07;;;;;;;48.55;25.42;;;;;;;;;;4982656;28;20054;-75
2022/12/02 04:49:32;;;;;;;43.08;21.23;;;;;;;;;;4967641;28;20096;-76
2022/12/02 04:51:58;;;;;;;41.22;20.85;;;;;;;;;;4989407;28;20046;-75
2022/12/02 04:54:23;;;;;;;42.00;19.33;;;;;;;;;;4979678;28;20637;-74
2022/12/02 04:56:49;;;;;;;40.58;19.08;;;;;;;;;;4985361;28;20040;-79
2022/12/02 04:59:14;;;;;;;43.03;20.15;;;;;;;;;;4980212;28;20513;-75
2022/12/02 05:01:40;;;;;;;42.58;19.40;;;;;;;;;;4985379;28;20117;-77
2022/12/02 05:04:05;;;;;;;37.72;20.60;;;;;;;;;;4985498;28;20105;-78
2022/12/02 05:06:31;;;;;;;43.70;19.77;;;;;;;;;;4985296;28;20030;-76
2022/12/02 05:08:56;;;;;;;42.60;21.27;;;;;;;;;;4978226;28;20043;-79
2022/12/02 05:11:22;;;;;;;47.88;22.10;;;;;;;;;;4965749;28;20544;-75
2022/12/02 05:13:47;;;;;;;39.67;19.60;;;;;;;;;;4986118;28;20050;-75
2022/12/02 05:16:13;;;;;;;38.45;19.40;;;;;;;;;;4985539;28;20041;-75
2022/12/02 05:18:39;;;;;;;42.95;19.92;;;;;;;;;;4982900;28;20034;-77
2022/12/02 05:21:04;;;;;;;43.67;21.83;;;;;;;;;;4982385;28;20039;-73
2022/12/02 05:23:30;;;;;;;42.15;20.85;;;;;;;;;;4984073;28;20042;-74
2022/12/02 05:25:56;;;;;;;41.88;20.13;;;;;;;;;;4978933;28;20034;-76
2022/12/02 05:28:21;;;;;;;40.85;20.55;;;;;;;;;;4982534;28;20029;-74
2022/12/02 05:30:47;;;;;;;42.97;22.30;;;;;;;;;;4984795;28;20058;-76
2022/12/02 05:33:12;;;;;;;42.17;19.02;;;;;;;;;;4985675;28;20046;-74
2022/12/02 05:35:38;;;;;;;38.00;19.88;;;;;;;;;;4974899;28;20034;-78
2022/12/02 05:38:04;;;;;;;42.38;20.50;;;;;;;;;;4973101;28;20105;-76
2022/12/02 05:40:29;;;;;;;45.22;22.10;;;;;;;;;;4984768;28;20092;-79
2022/12/02 05:42:56;;;;;;;41.90;19.45;;;;;;;;;;4980259;28;20673;-74
2022/12/02 05:45:22;;;;;;;35.80;21.05;;;;;;;;;;4979753;28;20049;-77
2022/12/02 05:47:51;;;;;;;38.67;18.92;;;;;;;;;;4982479;28;20415;-76
2022/12/02 05:50:17;;;;;;;47.90;22.13;;;;;;;;;;4986461;28;20398;-75
2022/12/02 05:52:50;;;;;;;46.28;19.60;;;;;;;;;;4982413;28;20126;-74
2022/12/02 05:55:20;;;;;;;42.08;19.80;;;;;;;;;;4985708;28;20062;-78
2022/12/02 05:57:47;;;;;;;45.30;20.20;;;;;;;;;;4981846;28;20039;-74
2022/12/02 06:00:22;;;;;;;49.67;21.73;;;;;;;;;;4984515;28;20034;-76
2022/12/02 06:02:51;;;;;;;44.90;20.23;;;;;;;;;;4978571;28;20508;-75
2022/12/02 06:05:25;;;;;;;40.83;20.25;;;;;;;;;;4983943;28;20030;-76
2022/12/02 06:08:00;;;;;;;43.20;21.15;;;;;;;;;;4981206;28;20046;-75
2022/12/02 06:10:30;;;;;;;45.08;21.00;;;;;;;;;;4982021;28;20034;-75
2022/12/02 06:13:06;;;;;;;51.53;22.23;;;;;;;;;;4974942;28;20038;-75
2022/12/02 06:15:35;;;;;;;48.85;21.80;;;;;;;;;;4977867;28;20042;-76
2022/12/02 06:18:10;;;;;;;52.42;22.98;;;;;;;;;;4976679;28;20042;-76
2022/12/02 06:20:35;;;;;;;49.22;22.55;;;;;;;;;;4982606;28;20038;-79
2022/12/02 06:23:02;;;;;;;47.25;21.02;;;;;;;;;;4985151;28;20041;-76
2022/12/02 06:25:30;;;;;;;48.38;20.98;;;;;;;;;;4982067;28;20506;-76
2022/12/02 06:28:05;;;;;;;49.67;21.20;;;;;;;;;;4984381;28;20045;-75
2022/12/02 06:30:31;;;;;;;47.20;21.30;;;;;;;;;;4983099;28;20420;-76
2022/12/02 06:32:58;;;;;;;43.92;21.08;;;;;;;;;;4983522;28;20098;-76
2022/12/02 06:35:27;;;;;;;46.53;20.65;;;;;;;;;;4974019;28;20034;-75
2022/12/02 06:37:56;;;;;;;46.70;19.77;;;;;;;;;;4980834;28;20038;-77
2022/12/02 06:40:27;;;;;;;46.65;20.70;;;;;;;;;;4982155;28;20041;-79
2022/12/02 06:42:55;;;;;;;41.83;19.60;;;;;;;;;;4975588;28;20116;-75
2022/12/02 06:45:28;;;;;;;42.05;20.30;;;;;;;;;;4984013;28;20532;-76
2022/12/02 06:48:03;;;;;;;44.42;20.00;;;;;;;;;;4976316;28;20039;-79
2022/12/02 06:50:42;;;;;;;43.97;20.63;;;;;;;;;;4981278;28;20042;-75
2022/12/02 06:53:18;;;;;;;45.17;20.13;;;;;;;;;;4979138;28;20031;-75
2022/12/02 06:55:44;;;;;;;43.28;20.30;;;;;;;;;;4969286;28;20050;-75
2022/12/02 06:58:38;;;;;;;48.00;22.15;;;;;;;;;;4975862;28;20587;-74
2022/12/02 07:01:06;;;;;;;;;;;;;;;;;;4978179;28;20069;-75
2022/12/02 07:03:35;;;;;;;43.15;19.15;;;;;;;;;;4974884;28;19914;-75
2022/12/02 07:06:16;;;;;;;44.72;20.40;;;;;;;;;;4988718;28;20030;-75
2022/12/02 07:08:42;;;;;;;34.33;18.85;;;;;;;;;;4970102;28;20041;-74
2022/12/02 07:14:37;;;;;;;46.65;20.98;;;;;;;;;;4982973;28;20476;-74
2022/12/02 07:17:12;;;;;;;34.58;18.23;;;;;;;;;;4979729;28;20042;-75
2022/12/02 07:19:40;;;;;;;44.17;20.45;;;;;;;;;;4975529;28;20030;-76
2022/12/02 07:22:22;;;;;;;41.50;20.35;;;;;;;;;;4982028;28;20039;-75
2022/12/02 07:24:57;;;;;;;44.72;21.15;;;;;;;;;;4983175;28;20065;-75
2022/12/02 07:27:30;;;;;;;49.17;21.95;;;;;;;;;;4986843;28;20038;-76
2022/12/02 07:29:56;;;;;;;43.28;21.35;;;;;;;;;;4982497;28;20088;-76
2022/12/02 07:32:22;;;;;;;62.00;24.48;;;;;;;;;;4985615;28;20397;-75
2022/12/02 07:34:47;;;;;;;49.10;21.83;;;;;;;;;;4973761;28;20173;-78
2022/12/02 07:37:13;;;;;;;42.67;19.38;;;;;;;;;;4978827;28;20030;-75
2022/12/02 07:39:39;;;;;;;42.28;21.40;;;;;;;;;;4975927;28;20110;-75
2022/12/02 07:42:04;;;;;;;59.28;22.52;;;;;;;;;;4985939;28;20038;-77
2022/12/02 07:44:30;;;;;;;50.47;22.35;;;;;;;;;;4975100;28;20039;-74
2022/12/02 07:46:56;;;;;;;43.17;20.27;;;;;;;;;;4961735;28;20038;-78
2022/12/02 07:49:21;;;;;;;47.80;21.38;;;;;;;;;;4973142;28;20098;-77
2022/12/02 07:51:47;;;;;;;51.55;25.17;;;;;;;;;;4982264;28;20035;-78
2022/12/02 07:54:13;;;;;;;50.38;22.75;;;;;;;;;;4981478;28;20046;-74
2022/12/02 07:56:39;;;;;;;50.70;22.55;;;;;;;;;;4975645;28;20037;-74
2022/12/02 07:59:04;;;;;;;52.25;22.83;;;;;;;;;;4979405;28;20043;-74
2022/12/02 08:01:30;;;;;;;47.95;21.83;;;;;;;;;;4982580;28;20399;-78
2022/12/02 08:03:56;;;;;;;49.92;22.38;;;;;;;;;;4975261;28;20034;-75
2022/12/02 08:06:21;;;;;;;48.80;22.10;;;;;;;;;;4980245;28;20030;-77
2022/12/02 08:08:47;;;;;;;53.53;23.80;;;;;;;;;;4976368;28;20049;-76
2022/12/02 08:11:13;;;;;;;52.55;23.67;;;;;;;;;;4977435;28;20454;-76
2022/12/02 08:13:38;;;;;;;47.90;21.65;;;;;;;;;;4974563;28;20034;-76
2022/12/02 08:16:04;;;;;;;52.78;23.52;;;;;;;;;;4978215;28;20482;-76
2022/12/02 08:18:30;;;;;;;63.42;25.05;;;;;;;;;;4971690;28;20110;-77
2022/12/02 08:20:55;;;;;;;63.53;24.30;;;;;;;;;;4964056;28;20502;-77
2022/12/02 08:23:21;;;;;;;60.55;24.02;;;;;;;;;;4965040;28;20531;-79
2022/12/02 08:25:46;;;;;;;45.20;21.20;;;;;;;;;;4978743;28;20023;-75
2022/12/02 08:28:13;;;;;;;63.75;26.02;;;;;;;;;;4964445;28;20031;-77
2022/12/02 08:30:39;;;;;;;59.85;25.05;;;;;;;;;;4973158;28;20049;-77
2022/12/02 08:33:05;;;;;;;58.83;22.98;;;;;;;;;;4980126;28;20047;-76
2022/12/02 08:35:32;;;;;;;61.90;24.52;;;;;;;;;;4975786;28;20034;-78
2022/12/02 08:37:57;;;;;;;58.28;23.98;;;;;;;;;;4974466;28;20046;-77
2022/12/02 08:40:23;;;;;;;53.47;24.48;;;;;;;;;;4968501;28;20045;-76
2022/12/02 08:42:49;;;;;;;58.88;23.75;;;;;;;;;;4973513;28;20394;-76
2022/12/02 08:45:14;;;;;;;55.13;23.70;;;;;;;;;;4971916;28;20109;-76
2022/12/02 08:47:40;;;;;;;61.65;23.55;;;;;;;;;;4967426;28;20047;-76
2022/12/02 08:50:08;;;;;;;52.95;24.77;;;;;;;;;;4967830;28;20033;-77
2022/12/02 08:52:34;;;;;;;64.97;24.97;;;;;;;;;;4972536;28;20043;-84
2022/12/02 08:55:00;;;;;;;54.97;24.83;;;;;;;;;;4966644;28;20310;-76
2022/12/02 08:57:25;;;;;;;57.55;24.17;;;;;;;;;;4969127;28;20042;-77
2022/12/02 08:59:51;;;;;;;52.60;22.95;;;;;;;;;;4969046;28;20147;-76
2022/12/02 09:02:16;;;;;;;55.17;22.60;;;;;;;;;;4976141;28;20039;-78
2022/12/02 09:04:42;;;;;;;54.28;22.65;;;;;;;;;;4971121;28;20078;-76
2022/12/02 09:07:08;;;;;;;53.00;20.92;;;;;;;;;;4963916;28;20066;-78
2022/12/02 09:09:34;;;;;;;43.75;20.23;;;;;;;;;;4963515;28;20558;-76
2022/12/02 09:12:00;;;;;;;53.28;21.35;;;;;;;;;;4959513;28;20070;-77
2022/12/02 09:14:25;;;;;;;54.00;22.83;;;;;;;;;;4962664;28;20107;-76
2022/12/02 09:16:51;;;;;;;45.42;20.85;;;;;;;;;;4965277;28;20788;-79
2022/12/02 09:19:16;;;;;;;47.97;22.48;;;;;;;;;;4969728;28;20034;-77
2022/12/02 09:21:42;;;;;;;49.25;21.92;;;;;;;;;;4968751;28;20043;-76
2022/12/02 09:24:07;;;;;;;46.33;22.00;;;;;;;;;;4962871;28;20066;-77
2022/12/02 09:26:56;;;;;;;40.60;20.65;;;;;;;;;;4972126;28;20401;-77
2022/12/02 09:29:21;;;;;;;46.00;21.17;;;;;;;;;;4968393;28;20041;-79
2022/12/02 09:31:47;;;;;;;49.63;21.15;;;;;;;;;;4961315;28;20050;-77
2022/12/02 09:34:12;;;;;;;49.53;22.27;;;;;;;;;;4972453;28;20673;-78
2022/12/02 09:36:38;;;;;;;52.83;23.40;;;;;;;;;;4975105;28;20034;-76
2022/12/02 09:39:04;;;;;;;58.20;23.55;;;;;;;;;;4970828;28;20089;-77
2022/12/02 09:41:30;;;;;;;47.00;21.88;;;;;;;;;;4978109;28;20038;-77
2022/12/02 09:43:55;;;;;;;56.20;21.15;;;;;;;;;;4975730;28;20038;-76
2022/12/02 09:46:21;;;;;;;49.55;22.08;;;;;;;;;;4969452;28;20027;-77
2022/12/02 09:48:48;;;;;;;51.53;22.10;;;;;;;;;;4972334;28;20118;-78
2022/12/02 09:51:14;;;;;;;53.38;24.15;;;;;;;;;;4963022;28;20046;-76
2022/12/02 09:53:40;;;;;;;44.53;21.02;;;;;;;;;;4963488;28;20039;-76
2022/12/02 09:56:16;;;;;;;59.35;23.00;;;;;;;;;;4963754;28;20562;-77
2022/12/02 09:58:43;;;;;;;49.55;20.83;;;;;;;;;;4966862;28;20031;-77
2022/12/02 10:01:13;;;;;;;50.55;21.02;;;;;;;;;;4972662;28;20093;-78
2022/12/02 10:03:40;;;;;;;49.42;21.65;;;;;;;;;;4977765;28;20034;-78
2022/12/02 10:06:16;;;;;;;53.58;21.27;;;;;;;;;;4968641;28;20457;-77
2022/12/02 10:08:42;;;;;;;61.00;24.30;;;;;;;;;;4971999;28;20053;-76
2022/12/02 10:11:18;;;;;;;56.92;21.70;;;;;;;;;;4971976;28;20069;-77
2022/12/02 10:13:44;;;;;;;57.10;23.48;;;;;;;;;;4974519;28;20184;-76
2022/12/02 10:16:12;;;;;;;56.53;23.08;;;;;;;;;;4986456;28;20675;-76
2022/12/02 10:18:39;;;;;;;53.40;22.50;;;;;;;;;;4967696;28;20117;-75
2022/12/02 10:21:05;;;;;;;60.63;22.95;;;;;;;;;;4973832;28;20042;-77
2022/12/02 10:23:31;;;;;;;50.47;22.23;;;;;;;;;;4968227;28;20042;-76
2022/12/02 10:26:06;;;;;;;55.03;23.75;;;;;;;;;;4968246;28;20093;-77
2022/12/02 10:28:33;;;;;;;50.13;21.88;;;;;;;;;;4972949;28;20045;-76
2022/12/02 10:31:21;;;;;;;49.15;22.73;;;;;;;;;;4967535;28;20078;-77
2022/12/02 10:33:54;;;;;;;48.22;21.67;;;;;;;;;;4967273;28;20031;-76
2022/12/02 10:36:34;;;;;;;47.20;19.88;;;;;;;;;;4969945;28;20160;-77
2022/12/02 10:39:34;;;;;;;43.30;21.52;;;;;;;;;;4964811;28;20037;-77
2022/12/02 10:42:02;;;;;;;41.03;17.80;;;;;;;;;;4969548;28;20047;-79
2022/12/02 10:44:29;;;;;;;38.83;19.73;;;;;;;;;;4968174;28;20035;-78
2022/12/02 10:47:11;;;;;;;42.03;17.75;;;;;;;;;;4953850;28;20030;-77
2022/12/02 10:49:36;;;;;;;42.75;20.23;;;;;;;;;;4982015;28;20038;-78
2022/12/02 10:52:11;;;;;;;39.63;19.08;;;;;;;;;;4976942;28;20402;-76
2022/12/02 10:54:39;;;;;;;40.40;19.48;;;;;;;;;;4975918;28;20038;-77
2022/12/02 10:57:05;;;;;;;37.03;18.00;;;;;;;;;;4977519;28;20031;-77
2022/12/02 10:59:32;;;;;;;39.10;18.67;;;;;;;;;;4965873;28;20038;-78
2022/12/02 11:01:59;;;;;;;33.97;17.63;;;;;;;;;;4970185;28;20034;-76
2022/12/02 11:04:27;;;;;;;36.10;17.67;;;;;;;;;;4965639;28;20602;-77
2022/12/02 11:06:53;;;;;;;38.10;17.67;;;;;;;;;;4965870;28;20035;-77
2022/12/02 11:09:25;;;;;;;38.80;19.33;;;;;;;;;;4972294;28;20065;-75
2022/12/02 11:11:51;;;;;;;36.28;17.45;;;;;;;;;;4968642;28;20273;-78
2022/12/02 11:14:38;;;;;;;36.40;17.13;;;;;;;;;;4977577;28;20026;-78
2022/12/02 11:17:09;;;;;;;32.95;16.52;;;;;;;;;;4971187;28;20037;-76
2022/12/02 11:19:35;;;;;;;41.58;19.13;;;;;;;;;;4975809;28;20031;-77
2022/12/02 11:22:01;;;;;;;36.15;17.05;;;;;;;;;;4965831;28;20053;-76
2022/12/02 11:24:29;;;;;;;36.50;17.77;;;;;;;;;;4964658;28;20035;-76
2022/12/02 11:26:58;;;;;;;45.97;20.10;;;;;;;;;;4967619;28;20034;-78
2022/12/02 11:29:24;;;;;;;31.20;16.90;;;;;;;;;;4971950;28;20309;-79
2022/12/02 11:32:38;;;;;;;35.60;17.88;;;;;;;;;;4971156;28;20102;-79
2022/12/02 11:35:12;;;;;;;37.63;17.88;;;;;;;;;;4971389;28;20046;-76
2022/12/02 11:38:18;;;;;;;42.22;21.05;;;;;;;;;;4957204;28;20046;-77
2022/12/02 11:40:43;;;;;;;36.10;18.25;;;;;;;;;;4969651;28;20035;-77
2022/12/02 11:43:49;;;;;;;35.78;18.52;;;;;;;;;;4970218;28;20156;-78
2022/12/02 11:46:18;;;;;;;33.10;17.25;;;;;;;;;;4979776;28;20121;-76
2022/12/02 11:49:02;;;;;;;30.58;17.10;;;;;;;;;;4969797;28;20053;-78
2022/12/02 11:51:27;;;;;;;28.92;16.92;;;;;;;;;;4969428;28;20548;-76
2022/12/02 11:53:53;;;;;;;33.72;17.75;;;;;;;;;;4966972;28;20050;-76
2022/12/02 11:56:19;;;;;;;34.60;17.63;;;;;;;;;;4969689;28;20530;-77
2022/12/02 11:58:44;;;;;;;23.35;15.15;;;;;;;;;;4971205;28;20041;-79
2022/12/02 12:01:20;;;;;;;27.65;14.63;;;;;;;;;;4965289;28;20031;-78
2022/12/02 12:03:50;;;;;;;31.75;16.15;;;;;;;;;;4975802;28;20050;-79
2022/12/02 12:06:21;;;;;;;28.90;16.02;;;;;;;;;;4967404;28;20394;-78
2022/12/02 12:08:50;;;;;;;35.85;15.80;;;;;;;;;;4977733;28;20478;-77
2022/12/02 12:11:17;;;;;;;24.38;14.23;;;;;;;;;;4975672;28;20035;-77
2022/12/02 12:14:11;;;;;;;26.10;14.80;;;;;;;;;;4970060;28;20026;-77
2022/12/02 12:16:39;;;;;;;24.65;14.88;;;;;;;;;;4971697;28;20098;-80
2022/12/02 12:19:25;;;;;;;21.52;13.73;;;;;;;;;;4975237;28;20039;-78
2022/12/02 12:21:54;;;;;;;25.08;14.45;;;;;;;;;;4983980;28;20054;-77
2022/12/02 12:24:20;;;;;;;26.65;16.05;;;;;;;;;;4980154;28;20754;-76
2022/12/02 12:27:01;;;;;;;28.00;15.05;;;;;;;;;;4988791;28;20034;-79
2022/12/02 12:29:30;;;;;;;23.17;14.18;;;;;;;;;;4973697;28;20632;-78
2022/12/02 12:31:56;;;;;;;30.40;15.18;;;;;;;;;;4975696;28;20039;-76
2022/12/02 12:34:22;;;;;;;31.92;14.65;;;;;;;;;;4976449;28;20050;-77
2022/12/02 12:36:47;;;;;;;24.17;14.57;;;;;;;;;;4982887;28;20647;-77
2022/12/02 12:39:14;;;;;;;24.35;14.90;;;;;;;;;;4967647;28;20058;-76
2022/12/02 12:41:40;;;;;;;23.00;14.07;;;;;;;;;;4974408;28;20066;-76
2022/12/02 12:44:06;;;;;;;25.42;15.02;;;;;;;;;;4962092;28;20040;-76
2022/12/02 12:46:32;;;;;;;26.08;15.00;;;;;;;;;;4963860;28;20110;-78
2022/12/02 12:48:58;;;;;;;26.63;15.70;;;;;;;;;;4977703;28;20063;-77
2022/12/02 12:51:23;;;;;;;24.80;14.20;;;;;;;;;;4965652;28;20038;-77
2022/12/02 12:53:49;;;;;;;26.20;14.15;;;;;;;;;;4979768;28;20065;-78
2022/12/02 12:56:15;;;;;;;26.05;15.25;;;;;;;;;;4975067;28;20039;-77
2022/12/02 12:58:40;;;;;;;24.27;14.77;;;;;;;;;;4972171;28;20031;-75
2022/12/02 13:01:06;;;;;;;25.65;13.45;;;;;;;;;;4977045;28;20047;-77
2022/12/02 13:03:32;;;;;;;20.20;14.50;;;;;;;;;;4972015;28;20049;-76
2022/12/02 13:05:59;;;;;;;25.65;13.05;;;;;;;;;;4974623;28;20034;-78
2022/12/02 13:08:25;;;;;;;20.83;13.00;;;;;;;;;;4967272;28;20180;-76
2022/12/02 13:10:50;;;;;;;24.80;14.05;;;;;;;;;;4971537;28;20065;-77
2022/12/02 13:13:16;;;;;;;23.67;14.50;;;;;;;;;;4970122;28;20043;-76
2022/12/02 13:15:42;;;;;;;20.00;12.98;;;;;;;;;;4979929;28;20030;-76
2022/12/02 13:18:07;;;;;;;19.67;13.68;;;;;;;;;;4976280;28;20038;-76
2022/12/02 13:20:34;;;;;;;22.58;13.75;;;;;;;;;;4964306;28;20031;-78
2022/12/02 13:23:01;;;;;;;19.33;13.38;;;;;;;;;;4959733;28;20146;-75
2022/12/02 13:25:27;;;;;;;21.17;13.02;;;;;;;;;;4968713;28;20545;-78
2022/12/02 13:27:52;;;;;;;23.60;14.93;;;;;;;;;;4954557;28;20499;-78
2022/12/02 13:30:23;;;;;;;16.05;12.68;;;;;;;;;;4983899;28;20014;-77
2022/12/02 13:32:50;;;;;;;17.65;13.07;;;;;;;;;;4952459;28;20065;-77
2022/12/02 13:35:16;;;;;;;25.48;14.00;;;;;;;;;;4964418;28;20034;-76
2022/12/02 13:37:43;;;;;;;19.88;12.20;;;;;;;;;;4973716;28;20070;-77
2022/12/02 13:40:15;;;;;;;17.15;12.50;;;;;;;;;;4980577;28;20529;-77
2022/12/02 13:42:42;;;;;;;15.75;12.00;;;;;;;;;;4977527;28;20098;-77
2022/12/02 13:45:11;;;;;;;21.17;13.75;;;;;;;;;;4984114;28;20043;-79
2022/12/02 13:47:42;;;;;;;20.17;13.55;;;;;;;;;;4982274;28;20105;-78
2022/12/02 13:50:08;;;;;;;15.13;11.85;;;;;;;;;;4952891;28;20054;-79
2022/12/02 13:52:34;;;;;;;17.60;11.82;;;;;;;;;;4969050;28;20041;-76
2022/12/02 13:54:59;;;;;;;18.25;12.60;;;;;;;;;;4993976;28;20064;-78
2022/12/02 13:57:25;;;;;;;16.92;12.75;;;;;;;;;;4982511;28;20047;-78
2022/12/02 13:59:51;;;;;;;22.92;15.07;;;;;;;;;;4977673;28;20062;-78
2022/12/02 14:02:17;;;;;;;22.25;14.38;;;;;;;;;;4967914;28;20042;-76
2022/12/02 14:04:42;;;;;;;17.08;13.13;;;;;;;;;;4982193;28;20085;-77
2022/12/02 14:07:08;;;;;;;19.90;12.88;;;;;;;;;;4983410;28;20038;-77
2022/12/02 14:09:33;;;;;;;19.27;12.77;;;;;;;;;;4973638;28;20121;-78
2022/12/02 14:11:59;;;;;;;17.05;12.43;;;;;;;;;;4970237;28;20039;-75
2022/12/02 14:14:25;;;;;;;16.48;12.57;;;;;;;;;;4971790;28;20045;-76
2022/12/02 14:16:50;;;;;;;15.63;11.70;;;;;;;;;;4976697;28;20035;-78
2022/12/02 14:19:16;;;;;;;17.38;12.60;;;;;;;;;;4966907;28;20039;-75
2022/12/02 14:21:42;;;;;;;15.48;12.65;;;;;;;;;;4956240;28;20135;-75
2022/12/02 14:24:08;;;;;;;15.57;11.68;;;;;;;;;;4935190;28;20050;-76
2022/12/02 14:26:36;;;;;;;14.82;11.48;;;;;;;;;;4977919;28;20040;-78
2022/12/02 14:29:02;;;;;;;18.60;11.82;;;;;;;;;;4979723;28;20032;-76